Shakhty, Russia
Current Conditions -  °F | °C
As of 12:30 PM on Friday 28 Nov 2014 (Local Time) from URRR Reporting Station
Overcast Overcast  
Wind Chill: 20°   Ceiling: 1300
Heat Index: 30°   Visibility: 6mi
Dew Point: 27°   Wind: 13mph
Humidity: 86%   Direction: 100°E
Pressure: 30.36"   Gusts: NA
Location:  47.71°N, 40.21°E
Report Text: URRR 280930Z 10006MPS 9999 BKN013 OVC100 M01/M03 Q1028 04810060NOSIG
Loading
Personal Weather Stations






























Interactive Weather Map New forecast layout! Learn more

10-Day Weather Forecast

Advertisements
Track Severe Weather on mobile